sensor_id;sensor_type;location;lat;lon;timestamp;P1;durP1;ratioP1;P2;durP2;ratioP2
53915;SDS011;39827;49.652;18.770;2023-02-28T00:02:19;852.63;;;787.67;;
53915;SDS011;39827;49.652;18.770;2023-02-28T00:04:45;854.58;;;788.95;;
53915;SDS011;39827;49.652;18.770;2023-02-28T00:07:17;853.00;;;788.08;;
53915;SDS011;39827;49.652;18.770;2023-02-28T00:09:43;861.65;;;795.42;;
53915;SDS011;39827;49.652;18.770;2023-02-28T00:12:08;843.65;;;779.50;;
53915;SDS011;39827;49.652;18.770;2023-02-28T00:14:35;837.55;;;773.45;;
53915;SDS011;39827;49.652;18.770;2023-02-28T00:17:01;849.30;;;784.53;;
53915;SDS011;39827;49.652;18.770;2023-02-28T00:19:27;833.88;;;770.13;;
53915;SDS011;39827;49.652;18.770;2023-02-28T00:21:52;851.53;;;786.88;;
53915;SDS011;39827;49.652;18.770;2023-02-28T00:24:17;854.47;;;789.05;;
53915;SDS011;39827;49.652;18.770;2023-02-28T00:26:43;851.72;;;786.20;;
53915;SDS011;39827;49.652;18.770;2023-02-28T00:29:08;843.60;;;779.20;;
53915;SDS011;39827;49.652;18.770;2023-02-28T00:31:34;786.97;;;728.42;;
53915;SDS011;39827;49.652;18.770;2023-02-28T00:34:00;744.42;;;690.22;;
53915;SDS011;39827;49.652;18.770;2023-02-28T00:36:25;772.20;;;716.22;;
53915;SDS011;39827;49.652;18.770;2023-02-28T00:38:51;837.65;;;774.28;;
53915;SDS011;39827;49.652;18.770;2023-02-28T00:41:16;788.90;;;732.08;;
53915;SDS011;39827;49.652;18.770;2023-02-28T00:43:42;805.90;;;746.15;;
53915;SDS011;39827;49.652;18.770;2023-02-28T00:46:07;789.70;;;731.42;;
53915;SDS011;39827;49.652;18.770;2023-02-28T00:48:33;750.65;;;696.15;;
53915;SDS011;39827;49.652;18.770;2023-02-28T00:50:59;726.42;;;674.45;;
53915;SDS011;39827;49.652;18.770;2023-02-28T00:53:24;727.17;;;674.08;;
53915;SDS011;39827;49.652;18.770;2023-02-28T00:55:50;768.88;;;711.95;;
53915;SDS011;39827;49.652;18.770;2023-02-28T00:58:15;768.58;;;711.72;;
53915;SDS011;39827;49.652;18.770;2023-02-28T01:00:41;811.47;;;749.67;;
53915;SDS011;39827;49.652;18.770;2023-02-28T01:03:06;768.33;;;711.38;;
53915;SDS011;39827;49.652;18.770;2023-02-28T01:05:32;761.30;;;704.83;;
53915;SDS011;39827;49.652;18.770;2023-02-28T01:07:57;788.60;;;729.28;;
53915;SDS011;39827;49.652;18.770;2023-02-28T01:10:22;780.35;;;722.20;;
53915;SDS011;39827;49.652;18.770;2023-02-28T01:12:48;730.20;;;676.45;;
53915;SDS011;39827;49.652;18.770;2023-02-28T01:15:13;756.00;;;700.38;;
53915;SDS011;39827;49.652;18.770;2023-02-28T01:17:39;756.75;;;700.92;;
53915;SDS011;39827;49.652;18.770;2023-02-28T01:20:04;723.10;;;669.90;;
53915;SDS011;39827;49.652;18.770;2023-02-28T01:22:30;683.95;;;633.72;;
53915;SDS011;39827;49.652;18.770;2023-02-28T01:24:55;697.67;;;646.85;;
53915;SDS011;39827;49.652;18.770;2023-02-28T01:27:21;699.30;;;648.15;;
53915;SDS011;39827;49.652;18.770;2023-02-28T01:29:46;719.17;;;666.90;;
53915;SDS011;39827;49.652;18.770;2023-02-28T01:32:12;722.47;;;670.30;;
53915;SDS011;39827;49.652;18.770;2023-02-28T01:34:37;738.80;;;684.90;;
53915;SDS011;39827;49.652;18.770;2023-02-28T01:37:02;714.20;;;663.10;;
53915;SDS011;39827;49.652;18.770;2023-02-28T01:39:28;699.55;;;649.35;;
53915;SDS011;39827;49.652;18.770;2023-02-28T01:41:54;746.20;;;691.88;;
53915;SDS011;39827;49.652;18.770;2023-02-28T01:47:18;730.13;;;677.10;;
53915;SDS011;39827;49.652;18.770;2023-02-28T01:49:44;715.88;;;664.20;;
53915;SDS011;39827;49.652;18.770;2023-02-28T01:52:10;774.00;;;716.63;;
53915;SDS011;39827;49.652;18.770;2023-02-28T01:54:42;737.10;;;682.30;;
53915;SDS011;39827;49.652;18.770;2023-02-28T01:57:14;733.60;;;678.53;;
53915;SDS011;39827;49.652;18.770;2023-02-28T01:59:48;727.88;;;672.63;;
53915;SDS011;39827;49.652;18.770;2023-02-28T02:02:38;660.05;;;610.30;;
53915;SDS011;39827;49.652;18.770;2023-02-28T02:05:06;705.30;;;652.33;;
53915;SDS011;39827;49.652;18.770;2023-02-28T02:07:38;682.20;;;630.53;;
53915;SDS011;39827;49.652;18.770;2023-02-28T02:10:29;661.47;;;611.67;;
53915;SDS011;39827;49.652;18.770;2023-02-28T02:18:24;553.10;;;511.33;;
53915;SDS011;39827;49.652;18.770;2023-02-28T02:32:44;730.63;;;677.78;;
53915;SDS011;39827;49.652;18.770;2023-02-28T02:40:43;742.35;;;685.97;;
53915;SDS011;39827;49.652;18.770;2023-02-28T02:45:49;687.53;;;635.95;;
53915;SDS011;39827;49.652;18.770;2023-02-28T02:48:19;831.65;;;766.28;;
53915;SDS011;39827;49.652;18.770;2023-02-28T02:50:50;727.35;;;672.08;;
53915;SDS011;39827;49.652;18.770;2023-02-28T02:53:21;741.17;;;684.22;;
53915;SDS011;39827;49.652;18.770;2023-02-28T02:55:50;699.42;;;646.75;;
53915;SDS011;39827;49.652;18.770;2023-02-28T02:58:20;802.63;;;740.28;;
53915;SDS011;39827;49.652;18.770;2023-02-28T03:00:53;640.70;;;592.92;;
53915;SDS011;39827;49.652;18.770;2023-02-28T03:03:22;587.20;;;542.75;;
53915;SDS011;39827;49.652;18.770;2023-02-28T03:05:54;550.13;;;509.38;;
53915;SDS011;39827;49.652;18.770;2023-02-28T03:08:24;574.85;;;533.78;;
53915;SDS011;39827;49.652;18.770;2023-02-28T03:10:50;600.42;;;554.53;;
53915;SDS011;39827;49.652;18.770;2023-02-28T03:13:42;597.25;;;552.05;;
53915;SDS011;39827;49.652;18.770;2023-02-28T03:26:45;657.28;;;608.80;;
53915;SDS011;39827;49.652;18.770;2023-02-28T03:31:48;612.00;;;567.20;;
53915;SDS011;39827;49.652;18.770;2023-02-28T03:39:31;702.47;;;651.75;;
53915;SDS011;39827;49.652;18.770;2023-02-28T03:42:04;654.83;;;607.80;;
53915;SDS011;39827;49.652;18.770;2023-02-28T03:45:20;678.10;;;626.40;;
53915;SDS011;39827;49.652;18.770;2023-02-28T03:47:29;562.15;;;519.95;;
53915;SDS011;39827;49.652;18.770;2023-02-28T03:52:37;581.05;;;536.58;;
53915;SDS011;39827;49.652;18.770;2023-02-28T03:55:10;553.08;;;511.85;;
53915;SDS011;39827;49.652;18.770;2023-02-28T03:57:44;577.30;;;535.13;;
53915;SDS011;39827;49.652;18.770;2023-02-28T04:00:23;569.17;;;525.15;;
53915;SDS011;39827;49.652;18.770;2023-02-28T04:02:54;589.42;;;544.63;;
53915;SDS011;39827;49.652;18.770;2023-02-28T04:05:20;518.40;;;479.98;;
53915;SDS011;39827;49.652;18.770;2023-02-28T04:07:47;517.15;;;480.60;;
53915;SDS011;39827;49.652;18.770;2023-02-28T04:10:13;566.97;;;525.90;;
53915;SDS011;39827;49.652;18.770;2023-02-28T04:12:41;499.50;;;464.95;;
53915;SDS011;39827;49.652;18.770;2023-02-28T04:15:06;478.20;;;445.80;;
53915;SDS011;39827;49.652;18.770;2023-02-28T04:17:32;616.17;;;569.85;;
53915;SDS011;39827;49.652;18.770;2023-02-28T04:19:58;647.58;;;598.83;;
53915;SDS011;39827;49.652;18.770;2023-02-28T04:22:23;702.90;;;648.92;;
53915;SDS011;39827;49.652;18.770;2023-02-28T04:24:52;649.33;;;601.45;;
53915;SDS011;39827;49.652;18.770;2023-02-28T04:27:19;697.35;;;644.65;;
53915;SDS011;39827;49.652;18.770;2023-02-28T04:29:45;669.78;;;619.55;;
53915;SDS011;39827;49.652;18.770;2023-02-28T04:32:10;613.67;;;567.15;;
53915;SDS011;39827;49.652;18.770;2023-02-28T04:34:36;629.45;;;580.97;;
53915;SDS011;39827;49.652;18.770;2023-02-28T04:37:01;616.30;;;569.70;;
53915;SDS011;39827;49.652;18.770;2023-02-28T04:39:28;656.72;;;608.03;;
53915;SDS011;39827;49.652;18.770;2023-02-28T04:41:54;706.90;;;652.20;;
53915;SDS011;39827;49.652;18.770;2023-02-28T04:44:21;706.67;;;652.72;;
53915;SDS011;39827;49.652;18.770;2023-02-28T04:46:47;674.35;;;623.15;;
53915;SDS011;39827;49.652;18.770;2023-02-28T04:49:13;708.20;;;654.50;;
53915;SDS011;39827;49.652;18.770;2023-02-28T04:51:39;686.33;;;633.65;;
53915;SDS011;39827;49.652;18.770;2023-02-28T04:54:05;655.67;;;605.33;;
53915;SDS011;39827;49.652;18.770;2023-02-28T04:56:31;556.03;;;513.33;;
53915;SDS011;39827;49.652;18.770;2023-02-28T04:58:57;631.90;;;583.58;;
53915;SDS011;39827;49.652;18.770;2023-02-28T05:01:26;593.28;;;547.92;;
53915;SDS011;39827;49.652;18.770;2023-02-28T05:03:55;591.60;;;546.30;;
53915;SDS011;39827;49.652;18.770;2023-02-28T05:06:22;559.75;;;517.42;;
53915;SDS011;39827;49.652;18.770;2023-02-28T05:08:50;516.00;;;479.08;;
53915;SDS011;39827;49.652;18.770;2023-02-28T05:13:58;603.72;;;557.95;;
53915;SDS011;39827;49.652;18.770;2023-02-28T05:16:24;618.85;;;572.45;;
53915;SDS011;39827;49.652;18.770;2023-02-28T05:18:49;527.75;;;490.40;;
53915;SDS011;39827;49.652;18.770;2023-02-28T05:23:55;480.00;;;446.55;;
53915;SDS011;39827;49.652;18.770;2023-02-28T05:26:22;458.75;;;427.50;;
53915;SDS011;39827;49.652;18.770;2023-02-28T05:28:47;549.80;;;508.80;;
53915;SDS011;39827;49.652;18.770;2023-02-28T05:31:13;569.60;;;527.15;;
53915;SDS011;39827;49.652;18.770;2023-02-28T05:33:39;585.67;;;541.22;;
53915;SDS011;39827;49.652;18.770;2023-02-28T05:36:05;610.72;;;564.70;;
53915;SDS011;39827;49.652;18.770;2023-02-28T05:38:31;624.50;;;578.63;;
53915;SDS011;39827;49.652;18.770;2023-02-28T05:40:56;645.35;;;597.72;;
53915;SDS011;39827;49.652;18.770;2023-02-28T05:43:22;713.40;;;660.63;;
53915;SDS011;39827;49.652;18.770;2023-02-28T05:45:47;767.17;;;708.60;;
53915;SDS011;39827;49.652;18.770;2023-02-28T05:48:13;752.00;;;695.70;;
53915;SDS011;39827;49.652;18.770;2023-02-28T05:50:38;772.47;;;713.72;;
53915;SDS011;39827;49.652;18.770;2023-02-28T05:53:04;742.72;;;686.83;;
53915;SDS011;39827;49.652;18.770;2023-02-28T05:55:29;735.58;;;680.20;;
53915;SDS011;39827;49.652;18.770;2023-02-28T05:57:54;737.22;;;681.05;;
53915;SDS011;39827;49.652;18.770;2023-02-28T06:00:20;672.13;;;621.40;;
53915;SDS011;39827;49.652;18.770;2023-02-28T06:02:46;608.67;;;562.67;;
53915;SDS011;39827;49.652;18.770;2023-02-28T06:05:16;678.92;;;628.42;;
53915;SDS011;39827;49.652;18.770;2023-02-28T06:07:43;765.63;;;707.85;;
53915;SDS011;39827;49.652;18.770;2023-02-28T06:10:12;764.03;;;706.53;;
53915;SDS011;39827;49.652;18.770;2023-02-28T06:12:38;748.03;;;691.17;;
53915;SDS011;39827;49.652;18.770;2023-02-28T06:15:04;725.15;;;670.65;;
53915;SDS011;39827;49.652;18.770;2023-02-28T06:17:30;715.50;;;661.17;;
53915;SDS011;39827;49.652;18.770;2023-02-28T06:19:55;687.17;;;635.40;;
53915;SDS011;39827;49.652;18.770;2023-02-28T06:22:20;655.80;;;606.95;;
53915;SDS011;39827;49.652;18.770;2023-02-28T06:24:46;526.97;;;487.10;;
53915;SDS011;39827;49.652;18.770;2023-02-28T06:27:12;470.67;;;436.05;;
53915;SDS011;39827;49.652;18.770;2023-02-28T06:29:37;621.25;;;574.40;;
53915;SDS011;39827;49.652;18.770;2023-02-28T06:32:04;660.58;;;610.72;;
53915;SDS011;39827;49.652;18.770;2023-02-28T06:34:30;607.92;;;561.88;;
53915;SDS011;39827;49.652;18.770;2023-02-28T06:36:56;671.70;;;621.08;;
53915;SDS011;39827;49.652;18.770;2023-02-28T06:39:21;621.95;;;575.15;;
53915;SDS011;39827;49.652;18.770;2023-02-28T06:41:46;628.53;;;581.00;;
53915;SDS011;39827;49.652;18.770;2023-02-28T06:44:16;629.72;;;582.00;;
53915;SDS011;39827;49.652;18.770;2023-02-28T06:46:42;649.67;;;600.28;;
53915;SDS011;39827;49.652;18.770;2023-02-28T06:49:09;630.80;;;583.75;;
53915;SDS011;39827;49.652;18.770;2023-02-28T06:51:36;687.20;;;636.28;;
53915;SDS011;39827;49.652;18.770;2023-02-28T06:54:03;661.03;;;611.05;;
53915;SDS011;39827;49.652;18.770;2023-02-28T06:56:29;674.70;;;623.45;;
53915;SDS011;39827;49.652;18.770;2023-02-28T06:58:55;723.63;;;669.33;;
53915;SDS011;39827;49.652;18.770;2023-02-28T07:01:21;668.13;;;617.95;;
53915;SDS011;39827;49.652;18.770;2023-02-28T07:03:48;708.83;;;656.40;;
53915;SDS011;39827;49.652;18.770;2023-02-28T07:06:17;714.80;;;662.55;;
53915;SDS011;39827;49.652;18.770;2023-02-28T07:08:52;720.80;;;668.40;;
53915;SDS011;39827;49.652;18.770;2023-02-28T07:11:19;765.17;;;708.88;;
53915;SDS011;39827;49.652;18.770;2023-02-28T07:13:47;715.08;;;663.17;;
53915;SDS011;39827;49.652;18.770;2023-02-28T07:16:13;648.67;;;602.28;;
53915;SDS011;39827;49.652;18.770;2023-02-28T07:18:38;703.97;;;654.75;;
53915;SDS011;39827;49.652;18.770;2023-02-28T07:21:05;670.92;;;625.47;;
53915;SDS011;39827;49.652;18.770;2023-02-28T07:23:32;687.70;;;639.28;;
53915;SDS011;39827;49.652;18.770;2023-02-28T07:25:57;621.28;;;575.30;;
53915;SDS011;39827;49.652;18.770;2023-02-28T07:28:23;550.55;;;509.85;;
53915;SDS011;39827;49.652;18.770;2023-02-28T07:30:48;509.17;;;471.35;;
53915;SDS011;39827;49.652;18.770;2023-02-28T07:33:14;489.25;;;453.77;;
53915;SDS011;39827;49.652;18.770;2023-02-28T07:35:40;446.63;;;414.83;;
53915;SDS011;39827;49.652;18.770;2023-02-28T07:38:05;283.17;;;264.33;;
53915;SDS011;39827;49.652;18.770;2023-02-28T07:40:32;211.55;;;197.73;;
53915;SDS011;39827;49.652;18.770;2023-02-28T07:42:59;204.77;;;191.85;;
53915;SDS011;39827;49.652;18.770;2023-02-28T07:45:25;183.68;;;171.70;;
53915;SDS011;39827;49.652;18.770;2023-02-28T07:47:51;187.63;;;175.88;;
53915;SDS011;39827;49.652;18.770;2023-02-28T07:50:16;184.27;;;172.27;;
53915;SDS011;39827;49.652;18.770;2023-02-28T07:52:42;179.95;;;168.73;;
53915;SDS011;39827;49.652;18.770;2023-02-28T07:55:08;189.40;;;177.52;;
53915;SDS011;39827;49.652;18.770;2023-02-28T07:57:34;191.88;;;179.77;;
53915;SDS011;39827;49.652;18.770;2023-02-28T08:00:00;197.70;;;185.10;;
53915;SDS011;39827;49.652;18.770;2023-02-28T08:02:25;184.05;;;172.32;;
53915;SDS011;39827;49.652;18.770;2023-02-28T08:04:51;178.10;;;166.80;;
53915;SDS011;39827;49.652;18.770;2023-02-28T08:07:17;183.82;;;172.35;;
53915;SDS011;39827;49.652;18.770;2023-02-28T08:09:43;195.35;;;182.98;;
53915;SDS011;39827;49.652;18.770;2023-02-28T08:12:09;206.32;;;193.60;;
53915;SDS011;39827;49.652;18.770;2023-02-28T08:14:35;220.98;;;207.50;;
53915;SDS011;39827;49.652;18.770;2023-02-28T08:17:01;276.38;;;259.60;;
53915;SDS011;39827;49.652;18.770;2023-02-28T08:19:27;255.20;;;239.40;;
53915;SDS011;39827;49.652;18.770;2023-02-28T08:21:53;214.07;;;200.88;;
53915;SDS011;39827;49.652;18.770;2023-02-28T08:24:19;199.02;;;186.90;;
53915;SDS011;39827;49.652;18.770;2023-02-28T08:26:44;196.73;;;184.43;;
53915;SDS011;39827;49.652;18.770;2023-02-28T08:29:10;236.80;;;222.27;;
53915;SDS011;39827;49.652;18.770;2023-02-28T08:31:35;268.55;;;252.02;;
53915;SDS011;39827;49.652;18.770;2023-02-28T08:34:07;284.52;;;266.67;;
53915;SDS011;39827;49.652;18.770;2023-02-28T08:36:37;225.80;;;211.80;;
53915;SDS011;39827;49.652;18.770;2023-02-28T08:39:03;265.90;;;249.60;;
53915;SDS011;39827;49.652;18.770;2023-02-28T08:41:29;248.80;;;233.57;;
53915;SDS011;39827;49.652;18.770;2023-02-28T08:43:55;269.33;;;252.75;;
53915;SDS011;39827;49.652;18.770;2023-02-28T08:46:21;282.73;;;264.95;;
53915;SDS011;39827;49.652;18.770;2023-02-28T08:48:52;226.25;;;211.77;;
53915;SDS011;39827;49.652;18.770;2023-02-28T08:51:19;211.27;;;197.90;;
53915;SDS011;39827;49.652;18.770;2023-02-28T08:53:54;224.35;;;209.77;;
53915;SDS011;39827;49.652;18.770;2023-02-28T08:56:22;268.80;;;251.63;;
53915;SDS011;39827;49.652;18.770;2023-02-28T08:58:49;261.48;;;245.13;;
53915;SDS011;39827;49.652;18.770;2023-02-28T09:01:16;265.23;;;248.68;;
53915;SDS011;39827;49.652;18.770;2023-02-28T09:03:44;252.75;;;236.63;;
53915;SDS011;39827;49.652;18.770;2023-02-28T09:06:11;238.98;;;223.80;;
53915;SDS011;39827;49.652;18.770;2023-02-28T09:08:37;253.65;;;237.45;;
53915;SDS011;39827;49.652;18.770;2023-02-28T09:11:03;252.13;;;235.98;;
53915;SDS011;39827;49.652;18.770;2023-02-28T09:13:29;295.00;;;275.92;;
53915;SDS011;39827;49.652;18.770;2023-02-28T09:15:57;262.50;;;245.73;;
53915;SDS011;39827;49.652;18.770;2023-02-28T09:18:23;260.65;;;244.20;;
53915;SDS011;39827;49.652;18.770;2023-02-28T09:20:49;273.15;;;255.00;;
53915;SDS011;39827;49.652;18.770;2023-02-28T09:23:15;263.02;;;246.55;;
53915;SDS011;39827;49.652;18.770;2023-02-28T09:25:51;260.23;;;244.02;;
53915;SDS011;39827;49.652;18.770;2023-02-28T09:28:17;286.77;;;268.63;;
53915;SDS011;39827;49.652;18.770;2023-02-28T09:30:44;265.27;;;248.38;;
53915;SDS011;39827;49.652;18.770;2023-02-28T09:33:12;290.13;;;271.98;;
53915;SDS011;39827;49.652;18.770;2023-02-28T09:35:38;275.40;;;258.30;;
53915;SDS011;39827;49.652;18.770;2023-02-28T09:38:03;305.33;;;285.90;;
53915;SDS011;39827;49.652;18.770;2023-02-28T09:40:29;313.48;;;293.58;;
53915;SDS011;39827;49.652;18.770;2023-02-28T09:42:56;278.13;;;260.33;;
53915;SDS011;39827;49.652;18.770;2023-02-28T09:45:27;288.98;;;270.17;;
53915;SDS011;39827;49.652;18.770;2023-02-28T09:47:58;286.70;;;268.42;;
53915;SDS011;39827;49.652;18.770;2023-02-28T09:50:39;302.95;;;284.05;;
53915;SDS011;39827;49.652;18.770;2023-02-28T09:53:13;297.63;;;279.00;;
53915;SDS011;39827;49.652;18.770;2023-02-28T09:55:47;227.25;;;212.50;;
53915;SDS011;39827;49.652;18.770;2023-02-28T09:58:22;245.15;;;230.10;;
53915;SDS011;39827;49.652;18.770;2023-02-28T10:00:56;289.17;;;271.45;;
53915;SDS011;39827;49.652;18.770;2023-02-28T10:03:49;271.02;;;254.00;;
53915;SDS011;39827;49.652;18.770;2023-02-28T10:06:18;281.35;;;263.85;;
53915;SDS011;39827;49.652;18.770;2023-02-28T10:11:35;257.63;;;241.30;;
53915;SDS011;39827;49.652;18.770;2023-02-28T10:14:14;240.00;;;224.90;;
53915;SDS011;39827;49.652;18.770;2023-02-28T10:16:44;258.33;;;241.88;;
53915;SDS011;39827;49.652;18.770;2023-02-28T10:19:21;237.27;;;222.68;;
53915;SDS011;39827;49.652;18.770;2023-02-28T10:22:11;210.77;;;197.45;;
53915;SDS011;39827;49.652;18.770;2023-02-28T10:27:18;277.15;;;259.90;;
53915;SDS011;39827;49.652;18.770;2023-02-28T10:29:49;268.77;;;251.70;;
53915;SDS011;39827;49.652;18.770;2023-02-28T10:32:23;254.25;;;238.65;;
53915;SDS011;39827;49.652;18.770;2023-02-28T10:37:37;210.77;;;197.40;;
53915;SDS011;39827;49.652;18.770;2023-02-28T10:40:04;265.48;;;248.90;;
53915;SDS011;39827;49.652;18.770;2023-02-28T10:42:31;223.27;;;209.48;;
53915;SDS011;39827;49.652;18.770;2023-02-28T10:45:13;226.07;;;212.02;;
53915;SDS011;39827;49.652;18.770;2023-02-28T10:48:02;268.17;;;251.57;;
53915;SDS011;39827;49.652;18.770;2023-02-28T10:50:43;190.63;;;178.45;;
53915;SDS011;39827;49.652;18.770;2023-02-28T10:55:55;160.20;;;150.20;;
53915;SDS011;39827;49.652;18.770;2023-02-28T10:58:46;133.25;;;124.75;;
53915;SDS011;39827;49.652;18.770;2023-02-28T11:01:38;192.45;;;180.40;;
53915;SDS011;39827;49.652;18.770;2023-02-28T11:06:58;120.80;;;113.00;;
53915;SDS011;39827;49.652;18.770;2023-02-28T11:09:45;141.88;;;132.88;;
53915;SDS011;39827;49.652;18.770;2023-02-28T11:14:55;248.90;;;233.68;;
53915;SDS011;39827;49.652;18.770;2023-02-28T11:17:24;264.45;;;248.40;;
53915;SDS011;39827;49.652;18.770;2023-02-28T11:19:55;155.40;;;145.48;;
53915;SDS011;39827;49.652;18.770;2023-02-28T11:22:28;155.30;;;145.68;;
53915;SDS011;39827;49.652;18.770;2023-02-28T11:25:02;101.20;;;94.72;;
53915;SDS011;39827;49.652;18.770;2023-02-28T11:29:59;101.72;;;94.90;;
53915;SDS011;39827;49.652;18.770;2023-02-28T11:32:26;131.05;;;122.85;;
53915;SDS011;39827;49.652;18.770;2023-02-28T11:35:03;118.18;;;110.32;;
53915;SDS011;39827;49.652;18.770;2023-02-28T11:37:29;279.08;;;260.85;;
53915;SDS011;39827;49.652;18.770;2023-02-28T11:39:56;281.45;;;263.83;;
53915;SDS011;39827;49.652;18.770;2023-02-28T11:50:25;261.85;;;245.27;;
53915;SDS011;39827;49.652;18.770;2023-02-28T11:53:23;221.20;;;206.70;;
53915;SDS011;39827;49.652;18.770;2023-02-28T11:56:16;236.13;;;220.95;;
53915;SDS011;39827;49.652;18.770;2023-02-28T11:58:54;236.32;;;221.27;;
53915;SDS011;39827;49.652;18.770;2023-02-28T12:01:26;228.77;;;214.30;;
53915;SDS011;39827;49.652;18.770;2023-02-28T12:06:55;289.40;;;271.10;;
53915;SDS011;39827;49.652;18.770;2023-02-28T12:09:44;283.08;;;265.02;;
53915;SDS011;39827;49.652;18.770;2023-02-28T12:20:55;260.02;;;242.98;;
53915;SDS011;39827;49.652;18.770;2023-02-28T12:31:45;277.23;;;259.13;;
53915;SDS011;39827;49.652;18.770;2023-02-28T12:34:25;276.65;;;258.63;;
53915;SDS011;39827;49.652;18.770;2023-02-28T12:36:56;255.85;;;239.45;;
53915;SDS011;39827;49.652;18.770;2023-02-28T12:39:33;262.50;;;245.33;;
53915;SDS011;39827;49.652;18.770;2023-02-28T12:42:07;289.10;;;269.70;;
53915;SDS011;39827;49.652;18.770;2023-02-28T12:44:52;273.17;;;255.13;;
53915;SDS011;39827;49.652;18.770;2023-02-28T12:47:40;245.73;;;229.65;;
53915;SDS011;39827;49.652;18.770;2023-02-28T12:50:10;255.32;;;238.52;;
53915;SDS011;39827;49.652;18.770;2023-02-28T12:55:13;263.30;;;246.45;;
53915;SDS011;39827;49.652;18.770;2023-02-28T13:00:48;265.45;;;248.52;;
53915;SDS011;39827;49.652;18.770;2023-02-28T13:09:27;238.73;;;223.53;;
53915;SDS011;39827;49.652;18.770;2023-02-28T13:11:55;245.75;;;230.15;;
53915;SDS011;39827;49.652;18.770;2023-02-28T13:22:02;243.82;;;228.13;;
53915;SDS011;39827;49.652;18.770;2023-02-28T13:29:32;249.75;;;233.85;;
53915;SDS011;39827;49.652;18.770;2023-02-28T13:34:33;262.45;;;245.45;;
53915;SDS011;39827;49.652;18.770;2023-02-28T14:01:52;384.45;;;358.10;;
53915;SDS011;39827;49.652;18.770;2023-02-28T14:07:09;387.85;;;361.75;;
53915;SDS011;39827;49.652;18.770;2023-02-28T14:09:45;370.85;;;345.70;;
53915;SDS011;39827;49.652;18.770;2023-02-28T14:17:52;470.60;;;436.95;;
53915;SDS011;39827;49.652;18.770;2023-02-28T14:20:20;543.53;;;503.30;;
53915;SDS011;39827;49.652;18.770;2023-02-28T14:28:11;653.25;;;606.55;;
53915;SDS011;39827;49.652;18.770;2023-02-28T14:30:57;673.08;;;625.55;;
53915;SDS011;39827;49.652;18.770;2023-02-28T14:35:58;719.55;;;669.08;;
53915;SDS011;39827;49.652;18.770;2023-02-28T14:38:27;724.22;;;673.28;;
53915;SDS011;39827;49.652;18.770;2023-02-28T14:40:56;760.03;;;707.95;;
53915;SDS011;39827;49.652;18.770;2023-02-28T14:43:24;824.10;;;766.97;;
53915;SDS011;39827;49.652;18.770;2023-02-28T14:45:52;825.15;;;768.67;;
53915;SDS011;39827;49.652;18.770;2023-02-28T14:48:24;834.00;;;777.83;;
53915;SDS011;39827;49.652;18.770;2023-02-28T14:50:53;829.42;;;773.30;;
53915;SDS011;39827;49.652;18.770;2023-02-28T14:53:22;806.67;;;752.33;;
53915;SDS011;39827;49.652;18.770;2023-02-28T14:55:50;811.17;;;756.55;;
53915;SDS011;39827;49.652;18.770;2023-02-28T14:58:31;848.63;;;792.28;;
53915;SDS011;39827;49.652;18.770;2023-02-28T15:00:59;807.28;;;754.35;;
53915;SDS011;39827;49.652;18.770;2023-02-28T15:05:55;822.40;;;768.03;;
53915;SDS011;39827;49.652;18.770;2023-02-28T15:08:25;794.03;;;741.83;;
53915;SDS011;39827;49.652;18.770;2023-02-28T15:10:55;798.10;;;745.03;;
53915;SDS011;39827;49.652;18.770;2023-02-28T15:13:26;765.63;;;715.03;;
53915;SDS011;39827;49.652;18.770;2023-02-28T15:16:08;806.65;;;753.53;;
53915;SDS011;39827;49.652;18.770;2023-02-28T15:21:13;767.95;;;717.03;;
53915;SDS011;39827;49.652;18.770;2023-02-28T15:23:45;726.65;;;678.30;;
53915;SDS011;39827;49.652;18.770;2023-02-28T15:26:23;784.00;;;731.88;;
53915;SDS011;39827;49.652;18.770;2023-02-28T15:28:57;784.25;;;732.47;;
53915;SDS011;39827;49.652;18.770;2023-02-28T15:31:29;764.97;;;714.28;;
53915;SDS011;39827;49.652;18.770;2023-02-28T15:33:58;734.17;;;684.72;;
53915;SDS011;39827;49.652;18.770;2023-02-28T15:36:30;755.38;;;705.13;;
53915;SDS011;39827;49.652;18.770;2023-02-28T15:38:59;709.45;;;661.95;;
53915;SDS011;39827;49.652;18.770;2023-02-28T15:41:29;690.70;;;644.17;;
53915;SDS011;39827;49.652;18.770;2023-02-28T15:47:04;883.05;;;819.25;;
53915;SDS011;39827;49.652;18.770;2023-02-28T15:49:39;842.08;;;781.50;;
53915;SDS011;39827;49.652;18.770;2023-02-28T15:52:12;855.25;;;793.42;;
53915;SDS011;39827;49.652;18.770;2023-02-28T15:54:43;883.70;;;819.95;;
53915;SDS011;39827;49.652;18.770;2023-02-28T15:57:13;923.42;;;856.10;;
53915;SDS011;39827;49.652;18.770;2023-02-28T15:59:45;902.15;;;837.05;;
53915;SDS011;39827;49.652;18.770;2023-02-28T16:02:18;915.40;;;849.55;;
53915;SDS011;39827;49.652;18.770;2023-02-28T16:04:55;875.33;;;812.08;;
53915;SDS011;39827;49.652;18.770;2023-02-28T16:07:26;889.50;;;825.17;;
53915;SDS011;39827;49.652;18.770;2023-02-28T16:09:52;833.13;;;772.42;;
53915;SDS011;39827;49.652;18.770;2023-02-28T16:12:19;845.13;;;784.58;;
53915;SDS011;39827;49.652;18.770;2023-02-28T16:14:50;843.50;;;782.22;;
53915;SDS011;39827;49.652;18.770;2023-02-28T16:17:21;854.47;;;793.38;;
53915;SDS011;39827;49.652;18.770;2023-02-28T16:19:49;841.70;;;781.08;;
53915;SDS011;39827;49.652;18.770;2023-02-28T16:22:15;839.53;;;778.88;;
53915;SDS011;39827;49.652;18.770;2023-02-28T16:24:40;784.85;;;727.55;;
53915;SDS011;39827;49.652;18.770;2023-02-28T16:27:06;790.10;;;732.75;;
53915;SDS011;39827;49.652;18.770;2023-02-28T16:29:41;798.47;;;739.95;;
53915;SDS011;39827;49.652;18.770;2023-02-28T16:32:06;828.58;;;767.88;;
53915;SDS011;39827;49.652;18.770;2023-02-28T16:34:32;793.70;;;735.28;;
53915;SDS011;39827;49.652;18.770;2023-02-28T16:36:57;805.92;;;746.92;;
53915;SDS011;39827;49.652;18.770;2023-02-28T16:39:23;804.03;;;745.22;;
53915;SDS011;39827;49.652;18.770;2023-02-28T16:41:49;800.25;;;741.42;;
53915;SDS011;39827;49.652;18.770;2023-02-28T16:44:29;786.75;;;728.78;;
53915;SDS011;39827;49.652;18.770;2023-02-28T16:46:56;791.90;;;733.33;;
53915;SDS011;39827;49.652;18.770;2023-02-28T16:49:25;801.05;;;741.40;;
53915;SDS011;39827;49.652;18.770;2023-02-28T16:51:50;829.17;;;767.42;;
53915;SDS011;39827;49.652;18.770;2023-02-28T16:54:15;848.15;;;784.58;;